Aeroporto :
LOGIN :

Iscrizione | Disclaimer

   EN    FR    IT 

 










Sommario :    VFR   VFR Marginale   IFR   IFR Intensivo   IFR Molto Intensivo
Visibilità : 
Base nubi : 
>= 8 km
>= 3000ft
5 / 8 km
1000 / 3000 ft
1500m / 5 km
500 / 1000 ft
800 / 1500m
200 / 500 ft
< 800m
< 200 ft
Simboli :   Temporali  Nebbia  Neve Forte  Precipitazioni Forti  Vento > 20 kt
SIGMETs :   Varie  Temporali  Ghiacco  Turbolenza  Onda orograficha  Ceneri Vulcaniche






- Altitudine del aeroporto : 6 ft
- Codice IATA : PSA


LIRP - Galileo Galilei Pisa

ULTIMO METAR :
  • 200345Z 12005KT 7000 MIFG NSC 05/05 Q1022 TEMPO 5000

METARs OBSOLETI :
  • 200315Z 15006KT 8000 MIFG NSC 05/05 Q1022 TEMPO 5000
  • 200245Z 10007KT 9000 MIFG NSC 06/06 Q1022 TEMPO 5000
  • 200215Z 11005KT 8000 MIFG NSC 06/06 Q1021 TEMPO 5000
  • 200145Z 15004KT CAVOK 06/06 Q1021 NOSIG
  • 200115Z VRB02KT CAVOK 06/06 Q1021 NOSIG

TAF TAF LIRP
Valido dal 20 a 00 ore il 21 a 00 ore UTC


192300Z 2000/2024 12006KT 9999 SCT025
PROB40
TEMPO 2000/2006 24006KT 5000 BR



MetMap, La meteo Aeronautica in un colpo d'occhio ! - Copyright ORBIFLY Dicembre 2007 - Disclaimer

ORBIFLY MET'MAP TEAM :

Programmazione e sviluppo : Alexandra Zaïnal
Concezione : Baudouin d'Aumeries
Aiuto per la programmazione : Marc-Olivier Méhu
Supporto tecnico e logistico : Manuel Goepfert
Aiuto per la traduzione : Arnaldo La Scala

Contatto : metmap@orbifly.com




FONTI E CREDITI :

   NOAA